Hovedside
METAR-TAF:

METAR-TAF

Lufthavner :

Nikola Tesla lufthavn

Beograd, Serbia

breddegrad: 44-49N, lengdegrad: 020-17E, høyde over havet: 96 m

Gjeldene værobservasjon

Denne rapporten ble laget for 23 minutter siden, klokken 15:30 UTC
Vind 18 kt fra Sørøst
Temperatur 15°C
Luftfuktighet 67%
Trykk 1012 hPa
Sikt 10 km eller mer
ingen skyer under 1500 m og ingen bygeskyer

METAR: LYBE 201530Z 13018KT CAVOK 15/09 Q1012 NOSIG

Tid: 16:53 (15:53 UTC)

Varsel

Denne rapporten ble laget for 4 timer og 53 minutter siden, klokken 11:00 UTC
Varsel gyldig fra 20. klokken 12 UTC til 21. klokken 12 UTC
Vind 12 kt fra Øst-sørøst
Sikt 10 km eller mer
ingen skyer under 1500 m og ingen bygeskyer
Midlertidig
fra 20. klokken 12 UTC til 20. klokken 15 UTC
Vind 16 kt fra Sørøst med vindkast opp mot 28 kt
regn
Blir
fra 20. klokken 22 UTC til 20. klokken 24 UTC
Vind 6 kt fra Sør-sørøst

TAF: LYBE 201100Z 2012/2112 12012KT CAVOK TX15/2013Z TN08/2105Z TEMPO 2012/2015 13016G28KT RA BECMG 2022/2024 15006KT

Værobservasjoner og værvarsel for over 4000 flyplasser (METAR- og TAF-rapporter).

Tilgjengelige stasjoner er representert av de røde og gule prikkene på kartet.

Hold musepekeren over prikken for å se navnet på stasjonen.

Klikk så for å se værobservasjoner og -varsler.

For å forandre kartet kan du klikke på den grønne knappen med svart kryss for å zoome inn, på den grønne knappen med strek for å zoome ut, eller på de grønne pilene for å se tilstøtende kart.


METAR-TAF: